sensor_id;sensor_type;location;lat;lon;timestamp;P1;durP1;ratioP1;P2;durP2;ratioP2
19891;SDS011;10108;50.142;8.724;2023-02-23T00:00:30;41.03;;;23.60;;
19891;SDS011;10108;50.142;8.724;2023-02-23T00:02:58;41.80;;;24.10;;
19891;SDS011;10108;50.142;8.724;2023-02-23T00:05:29;44.53;;;24.05;;
19891;SDS011;10108;50.142;8.724;2023-02-23T00:07:56;41.90;;;25.05;;
19891;SDS011;10108;50.142;8.724;2023-02-23T00:10:23;45.97;;;24.35;;
19891;SDS011;10108;50.142;8.724;2023-02-23T00:12:55;39.20;;;23.85;;
19891;SDS011;10108;50.142;8.724;2023-02-23T00:15:23;39.40;;;23.40;;
19891;SDS011;10108;50.142;8.724;2023-02-23T00:17:54;40.75;;;22.88;;
19891;SDS011;10108;50.142;8.724;2023-02-23T00:20:22;40.17;;;22.92;;
19891;SDS011;10108;50.142;8.724;2023-02-23T00:22:55;37.35;;;21.90;;
19891;SDS011;10108;50.142;8.724;2023-02-23T00:25:22;41.92;;;23.35;;
19891;SDS011;10108;50.142;8.724;2023-02-23T00:27:49;39.28;;;22.65;;
19891;SDS011;10108;50.142;8.724;2023-02-23T00:30:17;39.10;;;22.77;;
19891;SDS011;10108;50.142;8.724;2023-02-23T00:32:49;40.35;;;23.50;;
19891;SDS011;10108;50.142;8.724;2023-02-23T00:35:17;41.53;;;22.40;;
19891;SDS011;10108;50.142;8.724;2023-02-23T00:37:44;39.13;;;23.30;;
19891;SDS011;10108;50.142;8.724;2023-02-23T00:40:15;42.25;;;24.33;;
19891;SDS011;10108;50.142;8.724;2023-02-23T00:42:45;46.30;;;24.30;;
19891;SDS011;10108;50.142;8.724;2023-02-23T00:45:13;41.65;;;23.65;;
19891;SDS011;10108;50.142;8.724;2023-02-23T00:47:41;40.03;;;23.65;;
19891;SDS011;10108;50.142;8.724;2023-02-23T00:50:13;42.38;;;24.85;;
19891;SDS011;10108;50.142;8.724;2023-02-23T00:52:41;40.75;;;23.98;;
19891;SDS011;10108;50.142;8.724;2023-02-23T00:55:11;40.92;;;23.65;;
19891;SDS011;10108;50.142;8.724;2023-02-23T00:57:39;42.25;;;24.05;;
19891;SDS011;10108;50.142;8.724;2023-02-23T01:00:06;46.25;;;23.67;;
19891;SDS011;10108;50.142;8.724;2023-02-23T01:02:46;40.70;;;24.08;;
19891;SDS011;10108;50.142;8.724;2023-02-23T01:05:12;39.85;;;23.52;;
19891;SDS011;10108;50.142;8.724;2023-02-23T01:07:39;40.17;;;24.08;;
19891;SDS011;10108;50.142;8.724;2023-02-23T01:10:05;38.40;;;23.23;;
19891;SDS011;10108;50.142;8.724;2023-02-23T01:12:45;36.45;;;21.42;;
19891;SDS011;10108;50.142;8.724;2023-02-23T01:15:12;36.90;;;22.98;;
19891;SDS011;10108;50.142;8.724;2023-02-23T01:17:39;44.67;;;24.63;;
19891;SDS011;10108;50.142;8.724;2023-02-23T01:20:05;45.20;;;24.65;;
19891;SDS011;10108;50.142;8.724;2023-02-23T01:22:45;44.63;;;23.90;;
19891;SDS011;10108;50.142;8.724;2023-02-23T01:25:13;44.60;;;24.20;;
19891;SDS011;10108;50.142;8.724;2023-02-23T01:27:40;46.35;;;24.45;;
19891;SDS011;10108;50.142;8.724;2023-02-23T01:30:08;42.10;;;23.48;;
19891;SDS011;10108;50.142;8.724;2023-02-23T01:32:36;43.55;;;24.10;;
19891;SDS011;10108;50.142;8.724;2023-02-23T01:35:06;41.50;;;23.75;;
19891;SDS011;10108;50.142;8.724;2023-02-23T01:37:35;38.78;;;23.38;;
19891;SDS011;10108;50.142;8.724;2023-02-23T01:40:05;42.58;;;24.33;;
19891;SDS011;10108;50.142;8.724;2023-02-23T01:42:40;41.47;;;23.67;;
19891;SDS011;10108;50.142;8.724;2023-02-23T01:47:51;41.47;;;24.35;;
19891;SDS011;10108;50.142;8.724;2023-02-23T01:50:21;46.50;;;24.88;;
19891;SDS011;10108;50.142;8.724;2023-02-23T01:52:50;43.08;;;24.42;;
19891;SDS011;10108;50.142;8.724;2023-02-23T01:55:17;40.78;;;24.17;;
19891;SDS011;10108;50.142;8.724;2023-02-23T01:57:50;44.38;;;25.83;;
19891;SDS011;10108;50.142;8.724;2023-02-23T02:00:21;49.15;;;27.63;;
19891;SDS011;10108;50.142;8.724;2023-02-23T02:02:51;46.95;;;28.88;;
19891;SDS011;10108;50.142;8.724;2023-02-23T02:05:18;49.15;;;30.00;;
19891;SDS011;10108;50.142;8.724;2023-02-23T02:07:48;50.47;;;31.58;;
19891;SDS011;10108;50.142;8.724;2023-02-23T02:10:24;59.53;;;34.08;;
19891;SDS011;10108;50.142;8.724;2023-02-23T02:13:11;54.25;;;34.83;;
19891;SDS011;10108;50.142;8.724;2023-02-23T02:15:49;55.83;;;35.78;;
19891;SDS011;10108;50.142;8.724;2023-02-23T02:24:49;55.17;;;35.08;;
19891;SDS011;10108;50.142;8.724;2023-02-23T02:28:08;56.38;;;34.00;;
19891;SDS011;10108;50.142;8.724;2023-02-23T02:31:35;56.85;;;35.30;;
19891;SDS011;10108;50.142;8.724;2023-02-23T02:45:24;60.60;;;36.88;;
19891;SDS011;10108;50.142;8.724;2023-02-23T02:48:09;63.92;;;37.15;;
19891;SDS011;10108;50.142;8.724;2023-02-23T02:53:27;59.58;;;36.85;;
19891;SDS011;10108;50.142;8.724;2023-02-23T02:56:01;66.18;;;39.15;;
19891;SDS011;10108;50.142;8.724;2023-02-23T02:58:34;68.15;;;38.38;;
19891;SDS011;10108;50.142;8.724;2023-02-23T03:01:07;74.80;;;41.22;;
19891;SDS011;10108;50.142;8.724;2023-02-23T03:03:56;67.30;;;40.38;;
19891;SDS011;10108;50.142;8.724;2023-02-23T03:06:45;66.45;;;38.90;;
19891;SDS011;10108;50.142;8.724;2023-02-23T03:19:26;63.25;;;39.83;;
19891;SDS011;10108;50.142;8.724;2023-02-23T03:22:21;63.30;;;38.22;;
19891;SDS011;10108;50.142;8.724;2023-02-23T03:25:18;61.50;;;37.30;;
19891;SDS011;10108;50.142;8.724;2023-02-23T03:28:23;60.15;;;37.67;;
19891;SDS011;10108;50.142;8.724;2023-02-23T03:31:19;58.38;;;37.15;;
19891;SDS011;10108;50.142;8.724;2023-02-23T03:34:16;65.90;;;37.97;;
19891;SDS011;10108;50.142;8.724;2023-02-23T03:37:17;59.47;;;37.80;;
19891;SDS011;10108;50.142;8.724;2023-02-23T03:43:00;63.45;;;37.53;;
19891;SDS011;10108;50.142;8.724;2023-02-23T03:45:47;61.15;;;38.03;;
19891;SDS011;10108;50.142;8.724;2023-02-23T03:48:33;58.10;;;36.28;;
19891;SDS011;10108;50.142;8.724;2023-02-23T03:51:35;55.08;;;35.63;;
19891;SDS011;10108;50.142;8.724;2023-02-23T03:54:48;58.72;;;35.88;;
19891;SDS011;10108;50.142;8.724;2023-02-23T03:57:44;60.67;;;35.92;;
19891;SDS011;10108;50.142;8.724;2023-02-23T04:00:33;61.25;;;36.35;;
19891;SDS011;10108;50.142;8.724;2023-02-23T04:03:23;61.20;;;36.60;;
19891;SDS011;10108;50.142;8.724;2023-02-23T04:06:11;61.88;;;37.47;;
19891;SDS011;10108;50.142;8.724;2023-02-23T04:09:00;60.28;;;37.00;;
19891;SDS011;10108;50.142;8.724;2023-02-23T04:11:55;69.88;;;38.53;;
19891;SDS011;10108;50.142;8.724;2023-02-23T04:17:51;67.13;;;38.58;;
19891;SDS011;10108;50.142;8.724;2023-02-23T04:20:18;67.57;;;38.67;;
19891;SDS011;10108;50.142;8.724;2023-02-23T04:22:46;64.10;;;38.30;;
19891;SDS011;10108;50.142;8.724;2023-02-23T04:25:13;65.75;;;39.20;;
19891;SDS011;10108;50.142;8.724;2023-02-23T04:27:40;61.67;;;38.35;;
19891;SDS011;10108;50.142;8.724;2023-02-23T04:30:06;69.15;;;41.63;;
19891;SDS011;10108;50.142;8.724;2023-02-23T04:32:36;69.53;;;39.83;;
19891;SDS011;10108;50.142;8.724;2023-02-23T04:35:02;69.20;;;40.92;;
19891;SDS011;10108;50.142;8.724;2023-02-23T04:37:28;64.15;;;40.53;;
19891;SDS011;10108;50.142;8.724;2023-02-23T04:39:54;71.75;;;40.20;;
19891;SDS011;10108;50.142;8.724;2023-02-23T04:42:21;72.35;;;41.45;;
19891;SDS011;10108;50.142;8.724;2023-02-23T04:44:47;69.97;;;40.00;;
19891;SDS011;10108;50.142;8.724;2023-02-23T04:47:14;74.00;;;41.65;;
19891;SDS011;10108;50.142;8.724;2023-02-23T04:49:41;74.63;;;42.35;;
19891;SDS011;10108;50.142;8.724;2023-02-23T04:52:08;77.85;;;42.78;;
19891;SDS011;10108;50.142;8.724;2023-02-23T04:54:37;74.93;;;42.17;;
19891;SDS011;10108;50.142;8.724;2023-02-23T04:57:04;76.10;;;42.95;;
19891;SDS011;10108;50.142;8.724;2023-02-23T04:59:31;67.93;;;43.10;;
19891;SDS011;10108;50.142;8.724;2023-02-23T05:01:58;72.97;;;43.00;;
19891;SDS011;10108;50.142;8.724;2023-02-23T05:04:24;74.85;;;44.03;;
19891;SDS011;10108;50.142;8.724;2023-02-23T05:06:50;76.07;;;43.38;;
19891;SDS011;10108;50.142;8.724;2023-02-23T05:09:16;77.13;;;44.55;;
19891;SDS011;10108;50.142;8.724;2023-02-23T05:11:42;73.18;;;44.50;;
19891;SDS011;10108;50.142;8.724;2023-02-23T05:14:09;68.10;;;42.13;;
19891;SDS011;10108;50.142;8.724;2023-02-23T05:16:37;68.80;;;41.67;;
19891;SDS011;10108;50.142;8.724;2023-02-23T05:19:04;79.13;;;44.58;;
19891;SDS011;10108;50.142;8.724;2023-02-23T05:21:30;75.40;;;44.45;;
19891;SDS011;10108;50.142;8.724;2023-02-23T05:23:56;74.43;;;43.22;;
19891;SDS011;10108;50.142;8.724;2023-02-23T05:26:23;86.72;;;45.72;;
19891;SDS011;10108;50.142;8.724;2023-02-23T05:28:49;78.80;;;44.72;;
19891;SDS011;10108;50.142;8.724;2023-02-23T05:31:15;83.35;;;45.42;;
19891;SDS011;10108;50.142;8.724;2023-02-23T05:33:41;83.72;;;44.95;;
19891;SDS011;10108;50.142;8.724;2023-02-23T05:36:09;77.15;;;44.05;;
19891;SDS011;10108;50.142;8.724;2023-02-23T05:38:40;86.35;;;46.17;;
19891;SDS011;10108;50.142;8.724;2023-02-23T05:41:07;84.63;;;44.45;;
19891;SDS011;10108;50.142;8.724;2023-02-23T05:43:35;79.35;;;44.15;;
19891;SDS011;10108;50.142;8.724;2023-02-23T05:46:04;81.75;;;46.80;;
19891;SDS011;10108;50.142;8.724;2023-02-23T05:48:32;83.45;;;46.08;;
19891;SDS011;10108;50.142;8.724;2023-02-23T05:51:06;86.07;;;43.97;;
19891;SDS011;10108;50.142;8.724;2023-02-23T05:53:34;79.95;;;45.28;;
19891;SDS011;10108;50.142;8.724;2023-02-23T05:56:01;82.03;;;42.70;;
19891;SDS011;10108;50.142;8.724;2023-02-23T05:58:27;85.32;;;46.03;;
19891;SDS011;10108;50.142;8.724;2023-02-23T06:00:54;72.10;;;45.13;;
19891;SDS011;10108;50.142;8.724;2023-02-23T06:03:20;88.18;;;46.92;;
19891;SDS011;10108;50.142;8.724;2023-02-23T06:05:53;79.07;;;44.42;;
19891;SDS011;10108;50.142;8.724;2023-02-23T06:08:22;76.75;;;43.97;;
19891;SDS011;10108;50.142;8.724;2023-02-23T06:10:50;76.40;;;43.95;;
19891;SDS011;10108;50.142;8.724;2023-02-23T06:13:16;83.43;;;44.55;;
19891;SDS011;10108;50.142;8.724;2023-02-23T06:15:42;82.03;;;43.92;;
19891;SDS011;10108;50.142;8.724;2023-02-23T06:18:09;85.32;;;45.38;;
19891;SDS011;10108;50.142;8.724;2023-02-23T06:20:35;83.35;;;44.50;;
19891;SDS011;10108;50.142;8.724;2023-02-23T06:23:02;80.20;;;44.17;;
19891;SDS011;10108;50.142;8.724;2023-02-23T06:25:29;77.70;;;43.47;;
19891;SDS011;10108;50.142;8.724;2023-02-23T06:27:55;76.32;;;42.45;;
19891;SDS011;10108;50.142;8.724;2023-02-23T06:30:22;73.28;;;41.92;;
19891;SDS011;10108;50.142;8.724;2023-02-23T06:32:48;73.68;;;42.90;;
19891;SDS011;10108;50.142;8.724;2023-02-23T06:35:18;69.10;;;41.38;;
19891;SDS011;10108;50.142;8.724;2023-02-23T06:37:44;74.93;;;42.35;;
19891;SDS011;10108;50.142;8.724;2023-02-23T06:40:10;78.88;;;41.08;;
19891;SDS011;10108;50.142;8.724;2023-02-23T06:42:37;74.05;;;39.53;;
19891;SDS011;10108;50.142;8.724;2023-02-23T06:45:03;74.88;;;41.17;;
19891;SDS011;10108;50.142;8.724;2023-02-23T06:47:30;68.63;;;40.47;;
19891;SDS011;10108;50.142;8.724;2023-02-23T06:49:56;73.88;;;41.42;;
19891;SDS011;10108;50.142;8.724;2023-02-23T06:52:26;80.85;;;42.13;;
19891;SDS011;10108;50.142;8.724;2023-02-23T06:55:16;79.55;;;42.15;;
19891;SDS011;10108;50.142;8.724;2023-02-23T06:57:42;76.55;;;41.85;;
19891;SDS011;10108;50.142;8.724;2023-02-23T07:00:09;82.95;;;42.50;;
19891;SDS011;10108;50.142;8.724;2023-02-23T07:02:39;75.35;;;43.00;;
19891;SDS011;10108;50.142;8.724;2023-02-23T07:05:06;80.38;;;43.03;;
19891;SDS011;10108;50.142;8.724;2023-02-23T07:07:33;85.95;;;43.75;;
19891;SDS011;10108;50.142;8.724;2023-02-23T07:09:59;82.75;;;43.78;;
19891;SDS011;10108;50.142;8.724;2023-02-23T07:12:25;80.85;;;42.30;;
19891;SDS011;10108;50.142;8.724;2023-02-23T07:14:51;87.18;;;44.35;;
19891;SDS011;10108;50.142;8.724;2023-02-23T07:17:17;91.22;;;44.33;;
19891;SDS011;10108;50.142;8.724;2023-02-23T07:19:43;97.00;;;44.95;;
19891;SDS011;10108;50.142;8.724;2023-02-23T07:22:09;88.32;;;44.97;;
19891;SDS011;10108;50.142;8.724;2023-02-23T07:24:36;96.13;;;45.15;;
19891;SDS011;10108;50.142;8.724;2023-02-23T07:27:05;92.47;;;44.97;;
19891;SDS011;10108;50.142;8.724;2023-02-23T07:29:31;92.88;;;43.70;;
19891;SDS011;10108;50.142;8.724;2023-02-23T07:31:57;90.47;;;44.22;;
19891;SDS011;10108;50.142;8.724;2023-02-23T07:34:24;94.60;;;44.30;;
19891;SDS011;10108;50.142;8.724;2023-02-23T07:36:50;93.57;;;43.47;;
19891;SDS011;10108;50.142;8.724;2023-02-23T07:39:16;91.35;;;43.50;;
19891;SDS011;10108;50.142;8.724;2023-02-23T07:41:42;97.35;;;45.53;;
19891;SDS011;10108;50.142;8.724;2023-02-23T07:44:17;88.65;;;44.85;;
19891;SDS011;10108;50.142;8.724;2023-02-23T07:46:43;88.20;;;43.78;;
19891;SDS011;10108;50.142;8.724;2023-02-23T07:49:11;92.80;;;44.60;;
19891;SDS011;10108;50.142;8.724;2023-02-23T07:51:37;89.55;;;44.33;;
19891;SDS011;10108;50.142;8.724;2023-02-23T07:54:04;84.90;;;43.30;;
19891;SDS011;10108;50.142;8.724;2023-02-23T07:56:30;88.63;;;42.80;;
19891;SDS011;10108;50.142;8.724;2023-02-23T07:58:57;79.90;;;41.17;;
19891;SDS011;10108;50.142;8.724;2023-02-23T08:01:23;77.70;;;42.92;;
19891;SDS011;10108;50.142;8.724;2023-02-23T08:03:50;74.28;;;42.83;;
19891;SDS011;10108;50.142;8.724;2023-02-23T08:06:16;79.82;;;43.05;;
19891;SDS011;10108;50.142;8.724;2023-02-23T08:08:44;81.10;;;42.00;;
19891;SDS011;10108;50.142;8.724;2023-02-23T08:11:10;79.88;;;41.80;;
19891;SDS011;10108;50.142;8.724;2023-02-23T08:13:37;84.35;;;42.17;;
19891;SDS011;10108;50.142;8.724;2023-02-23T08:16:03;77.13;;;41.20;;
19891;SDS011;10108;50.142;8.724;2023-02-23T08:18:29;90.32;;;42.15;;
19891;SDS011;10108;50.142;8.724;2023-02-23T08:20:56;83.18;;;42.40;;
19891;SDS011;10108;50.142;8.724;2023-02-23T08:23:28;74.78;;;42.55;;
19891;SDS011;10108;50.142;8.724;2023-02-23T08:25:55;76.05;;;42.75;;
19891;SDS011;10108;50.142;8.724;2023-02-23T08:28:22;84.18;;;42.88;;
19891;SDS011;10108;50.142;8.724;2023-02-23T08:30:49;78.47;;;42.08;;
19891;SDS011;10108;50.142;8.724;2023-02-23T08:33:15;77.60;;;40.78;;
19891;SDS011;10108;50.142;8.724;2023-02-23T08:35:42;79.57;;;40.67;;
19891;SDS011;10108;50.142;8.724;2023-02-23T08:38:08;84.45;;;41.85;;
19891;SDS011;10108;50.142;8.724;2023-02-23T08:40:34;75.07;;;40.75;;
19891;SDS011;10108;50.142;8.724;2023-02-23T08:43:01;77.05;;;39.83;;
19891;SDS011;10108;50.142;8.724;2023-02-23T08:45:27;70.63;;;39.95;;
19891;SDS011;10108;50.142;8.724;2023-02-23T08:47:56;79.65;;;41.65;;
19891;SDS011;10108;50.142;8.724;2023-02-23T08:50:22;72.50;;;40.33;;
19891;SDS011;10108;50.142;8.724;2023-02-23T08:52:48;69.30;;;39.45;;
19891;SDS011;10108;50.142;8.724;2023-02-23T08:55:15;71.10;;;39.53;;
19891;SDS011;10108;50.142;8.724;2023-02-23T08:57:42;77.05;;;40.55;;
19891;SDS011;10108;50.142;8.724;2023-02-23T09:00:09;67.20;;;38.85;;
19891;SDS011;10108;50.142;8.724;2023-02-23T09:02:42;70.07;;;38.88;;
19891;SDS011;10108;50.142;8.724;2023-02-23T09:05:09;73.88;;;40.10;;
19891;SDS011;10108;50.142;8.724;2023-02-23T09:07:36;74.05;;;39.22;;
19891;SDS011;10108;50.142;8.724;2023-02-23T09:10:03;80.03;;;40.90;;
19891;SDS011;10108;50.142;8.724;2023-02-23T09:12:29;73.88;;;40.38;;
19891;SDS011;10108;50.142;8.724;2023-02-23T09:14:55;79.63;;;39.33;;
19891;SDS011;10108;50.142;8.724;2023-02-23T09:17:21;66.95;;;37.88;;
19891;SDS011;10108;50.142;8.724;2023-02-23T09:19:48;71.30;;;39.28;;
19891;SDS011;10108;50.142;8.724;2023-02-23T09:22:15;76.28;;;39.13;;
19891;SDS011;10108;50.142;8.724;2023-02-23T09:24:43;71.90;;;39.17;;
19891;SDS011;10108;50.142;8.724;2023-02-23T09:27:09;74.07;;;40.50;;
19891;SDS011;10108;50.142;8.724;2023-02-23T09:29:37;73.10;;;39.00;;
19891;SDS011;10108;50.142;8.724;2023-02-23T09:32:07;66.50;;;38.75;;
19891;SDS011;10108;50.142;8.724;2023-02-23T09:34:33;74.82;;;40.60;;
19891;SDS011;10108;50.142;8.724;2023-02-23T09:37:00;71.45;;;39.58;;
19891;SDS011;10108;50.142;8.724;2023-02-23T09:39:27;78.50;;;38.65;;
19891;SDS011;10108;50.142;8.724;2023-02-23T09:41:57;72.90;;;39.63;;
19891;SDS011;10108;50.142;8.724;2023-02-23T09:44:27;71.78;;;39.63;;
19891;SDS011;10108;50.142;8.724;2023-02-23T09:47:29;74.57;;;39.72;;
19891;SDS011;10108;50.142;8.724;2023-02-23T09:50:07;73.47;;;37.55;;
19891;SDS011;10108;50.142;8.724;2023-02-23T09:52:41;69.05;;;39.45;;
19891;SDS011;10108;50.142;8.724;2023-02-23T09:55:11;67.60;;;38.25;;
19891;SDS011;10108;50.142;8.724;2023-02-23T09:57:40;71.30;;;40.67;;
19891;SDS011;10108;50.142;8.724;2023-02-23T10:05:42;72.15;;;38.13;;
19891;SDS011;10108;50.142;8.724;2023-02-23T10:08:16;60.25;;;34.97;;
19891;SDS011;10108;50.142;8.724;2023-02-23T10:10:48;65.80;;;37.42;;
19891;SDS011;10108;50.142;8.724;2023-02-23T10:13:32;66.78;;;37.55;;
19891;SDS011;10108;50.142;8.724;2023-02-23T10:23:27;64.72;;;36.83;;
19891;SDS011;10108;50.142;8.724;2023-02-23T10:25:55;67.30;;;37.05;;
19891;SDS011;10108;50.142;8.724;2023-02-23T10:28:27;65.40;;;38.47;;
19891;SDS011;10108;50.142;8.724;2023-02-23T10:30:58;67.47;;;37.22;;
19891;SDS011;10108;50.142;8.724;2023-02-23T10:33:39;68.03;;;38.40;;
19891;SDS011;10108;50.142;8.724;2023-02-23T10:36:11;66.57;;;38.53;;
19891;SDS011;10108;50.142;8.724;2023-02-23T10:38:41;62.58;;;38.05;;
19891;SDS011;10108;50.142;8.724;2023-02-23T10:41:07;54.28;;;34.13;;
19891;SDS011;10108;50.142;8.724;2023-02-23T10:43:34;56.17;;;35.80;;
19891;SDS011;10108;50.142;8.724;2023-02-23T10:46:01;57.42;;;33.50;;
19891;SDS011;10108;50.142;8.724;2023-02-23T10:48:37;60.25;;;33.33;;
19891;SDS011;10108;50.142;8.724;2023-02-23T10:51:13;51.70;;;32.30;;
19891;SDS011;10108;50.142;8.724;2023-02-23T10:53:41;55.00;;;32.30;;
19891;SDS011;10108;50.142;8.724;2023-02-23T10:58:42;49.03;;;30.02;;
19891;SDS011;10108;50.142;8.724;2023-02-23T11:01:11;48.75;;;30.15;;
19891;SDS011;10108;50.142;8.724;2023-02-23T11:03:39;45.97;;;29.58;;
19891;SDS011;10108;50.142;8.724;2023-02-23T11:06:06;44.35;;;28.20;;
19891;SDS011;10108;50.142;8.724;2023-02-23T11:08:38;42.53;;;27.05;;
19891;SDS011;10108;50.142;8.724;2023-02-23T11:11:07;44.72;;;29.55;;
19891;SDS011;10108;50.142;8.724;2023-02-23T11:16:01;43.15;;;27.65;;
19891;SDS011;10108;50.142;8.724;2023-02-23T11:18:28;41.58;;;27.63;;
19891;SDS011;10108;50.142;8.724;2023-02-23T11:20:55;44.22;;;27.25;;
19891;SDS011;10108;50.142;8.724;2023-02-23T11:25:51;35.58;;;23.60;;
19891;SDS011;10108;50.142;8.724;2023-02-23T11:28:21;40.28;;;25.35;;
19891;SDS011;10108;50.142;8.724;2023-02-23T11:31:07;44.35;;;25.70;;
19891;SDS011;10108;50.142;8.724;2023-02-23T11:33:37;37.72;;;24.70;;
19891;SDS011;10108;50.142;8.724;2023-02-23T11:36:18;38.80;;;24.70;;
19891;SDS011;10108;50.142;8.724;2023-02-23T11:38:55;36.78;;;23.88;;
19891;SDS011;10108;50.142;8.724;2023-02-23T11:41:26;40.78;;;24.90;;
19891;SDS011;10108;50.142;8.724;2023-02-23T11:43:57;37.28;;;23.65;;
19891;SDS011;10108;50.142;8.724;2023-02-23T11:46:24;34.40;;;22.85;;
19891;SDS011;10108;50.142;8.724;2023-02-23T11:49:07;36.50;;;23.83;;
19891;SDS011;10108;50.142;8.724;2023-02-23T11:51:34;37.65;;;22.85;;
19891;SDS011;10108;50.142;8.724;2023-02-23T11:54:02;36.75;;;22.60;;
19891;SDS011;10108;50.142;8.724;2023-02-23T11:56:29;32.60;;;23.02;;
19891;SDS011;10108;50.142;8.724;2023-02-23T12:01:37;38.00;;;24.30;;
19891;SDS011;10108;50.142;8.724;2023-02-23T12:04:27;33.63;;;23.10;;
19891;SDS011;10108;50.142;8.724;2023-02-23T12:09:53;38.88;;;21.80;;
19891;SDS011;10108;50.142;8.724;2023-02-23T12:12:28;35.22;;;21.63;;
19891;SDS011;10108;50.142;8.724;2023-02-23T12:15:01;29.55;;;19.65;;
19891;SDS011;10108;50.142;8.724;2023-02-23T12:17:38;31.48;;;20.02;;
19891;SDS011;10108;50.142;8.724;2023-02-23T12:20:13;24.75;;;17.75;;
19891;SDS011;10108;50.142;8.724;2023-02-23T12:22:45;30.08;;;19.65;;
19891;SDS011;10108;50.142;8.724;2023-02-23T12:25:24;29.23;;;19.85;;
19891;SDS011;10108;50.142;8.724;2023-02-23T12:31:05;27.13;;;17.27;;
19891;SDS011;10108;50.142;8.724;2023-02-23T12:33:46;29.92;;;18.80;;
19891;SDS011;10108;50.142;8.724;2023-02-23T12:36:25;26.63;;;17.77;;
19891;SDS011;10108;50.142;8.724;2023-02-23T12:38:59;28.48;;;18.75;;
19891;SDS011;10108;50.142;8.724;2023-02-23T12:41:41;30.02;;;18.20;;
19891;SDS011;10108;50.142;8.724;2023-02-23T12:49:56;27.85;;;17.15;;
19891;SDS011;10108;50.142;8.724;2023-02-23T12:52:33;32.42;;;18.20;;
19891;SDS011;10108;50.142;8.724;2023-02-23T12:55:04;27.20;;;17.80;;
19891;SDS011;10108;50.142;8.724;2023-02-23T12:57:49;26.15;;;16.27;;
19891;SDS011;10108;50.142;8.724;2023-02-23T13:00:32;26.02;;;16.42;;
19891;SDS011;10108;50.142;8.724;2023-02-23T13:11:07;27.52;;;14.82;;
19891;SDS011;10108;50.142;8.724;2023-02-23T13:13:59;22.73;;;14.45;;
19891;SDS011;10108;50.142;8.724;2023-02-23T13:16:33;20.50;;;13.85;;
19891;SDS011;10108;50.142;8.724;2023-02-23T13:19:12;22.10;;;12.45;;
19891;SDS011;10108;50.142;8.724;2023-02-23T13:27:52;16.45;;;11.30;;
19891;SDS011;10108;50.142;8.724;2023-02-23T13:29:51;18.50;;;10.93;;
19891;SDS011;10108;50.142;8.724;2023-02-23T13:32:23;17.33;;;11.00;;
19891;SDS011;10108;50.142;8.724;2023-02-23T13:34:59;19.55;;;10.93;;
19891;SDS011;10108;50.142;8.724;2023-02-23T13:37:35;18.67;;;11.35;;
19891;SDS011;10108;50.142;8.724;2023-02-23T13:40:16;15.25;;;10.35;;
19891;SDS011;10108;50.142;8.724;2023-02-23T13:43:20;15.65;;;10.90;;
19891;SDS011;10108;50.142;8.724;2023-02-23T13:46:04;14.80;;;9.63;;
19891;SDS011;10108;50.142;8.724;2023-02-23T13:48:56;16.15;;;9.95;;
19891;SDS011;10108;50.142;8.724;2023-02-23T13:51:34;14.70;;;8.77;;
19891;SDS011;10108;50.142;8.724;2023-02-23T13:56:43;14.68;;;8.98;;
19891;SDS011;10108;50.142;8.724;2023-02-23T13:59:15;14.43;;;9.55;;
19891;SDS011;10108;50.142;8.724;2023-02-23T14:01:45;15.07;;;9.27;;
19891;SDS011;10108;50.142;8.724;2023-02-23T14:04:35;16.52;;;9.40;;
19891;SDS011;10108;50.142;8.724;2023-02-23T14:07:17;14.35;;;9.50;;
19891;SDS011;10108;50.142;8.724;2023-02-23T14:09:53;16.70;;;9.73;;
19891;SDS011;10108;50.142;8.724;2023-02-23T14:12:23;16.38;;;9.63;;
19891;SDS011;10108;50.142;8.724;2023-02-23T14:14:56;16.92;;;9.80;;
19891;SDS011;10108;50.142;8.724;2023-02-23T14:20:23;19.88;;;10.98;;
19891;SDS011;10108;50.142;8.724;2023-02-23T14:25:50;23.38;;;10.57;;
19891;SDS011;10108;50.142;8.724;2023-02-23T14:31:01;17.58;;;10.77;;
19891;SDS011;10108;50.142;8.724;2023-02-23T14:38:49;18.55;;;11.55;;
19891;SDS011;10108;50.142;8.724;2023-02-23T14:46:37;19.10;;;11.15;;
19891;SDS011;10108;50.142;8.724;2023-02-23T14:49:14;20.67;;;12.02;;
19891;SDS011;10108;50.142;8.724;2023-02-23T14:51:45;18.27;;;11.85;;
19891;SDS011;10108;50.142;8.724;2023-02-23T14:56:59;17.88;;;11.95;;
19891;SDS011;10108;50.142;8.724;2023-02-23T14:59:35;18.83;;;11.60;;
19891;SDS011;10108;50.142;8.724;2023-02-23T15:02:10;21.35;;;12.65;;
19891;SDS011;10108;50.142;8.724;2023-02-23T15:04:41;18.90;;;12.82;;
19891;SDS011;10108;50.142;8.724;2023-02-23T15:07:11;22.45;;;12.52;;
19891;SDS011;10108;50.142;8.724;2023-02-23T15:09:56;20.17;;;11.75;;
19891;SDS011;10108;50.142;8.724;2023-02-23T15:12:25;18.88;;;11.43;;
19891;SDS011;10108;50.142;8.724;2023-02-23T15:14:57;21.25;;;12.73;;
19891;SDS011;10108;50.142;8.724;2023-02-23T15:17:26;19.90;;;12.95;;
19891;SDS011;10108;50.142;8.724;2023-02-23T15:19:57;18.65;;;12.57;;
19891;SDS011;10108;50.142;8.724;2023-02-23T15:22:27;19.70;;;12.45;;
19891;SDS011;10108;50.142;8.724;2023-02-23T15:25:19;19.67;;;11.85;;
19891;SDS011;10108;50.142;8.724;2023-02-23T15:27:48;24.33;;;13.10;;
19891;SDS011;10108;50.142;8.724;2023-02-23T15:30:20;28.25;;;14.35;;
19891;SDS011;10108;50.142;8.724;2023-02-23T15:33:05;35.80;;;17.98;;
19891;SDS011;10108;50.142;8.724;2023-02-23T15:35:47;21.40;;;13.15;;
19891;SDS011;10108;50.142;8.724;2023-02-23T15:38:38;21.27;;;12.88;;
19891;SDS011;10108;50.142;8.724;2023-02-23T15:41:08;28.35;;;13.98;;
19891;SDS011;10108;50.142;8.724;2023-02-23T15:43:49;32.67;;;15.73;;
19891;SDS011;10108;50.142;8.724;2023-02-23T15:46:20;23.20;;;13.43;;
19891;SDS011;10108;50.142;8.724;2023-02-23T15:48:51;20.15;;;12.95;;
19891;SDS011;10108;50.142;8.724;2023-02-23T15:51:21;20.23;;;12.15;;
19891;SDS011;10108;50.142;8.724;2023-02-23T15:53:58;20.13;;;12.52;;
19891;SDS011;10108;50.142;8.724;2023-02-23T15:56:26;20.52;;;12.60;;
19891;SDS011;10108;50.142;8.724;2023-02-23T15:58:55;23.25;;;13.02;;
19891;SDS011;10108;50.142;8.724;2023-02-23T16:01:24;19.88;;;12.32;;
19891;SDS011;10108;50.142;8.724;2023-02-23T16:04:37;19.73;;;12.95;;
19891;SDS011;10108;50.142;8.724;2023-02-23T16:06:53;18.23;;;11.65;;
19891;SDS011;10108;50.142;8.724;2023-02-23T16:09:30;20.35;;;11.77;;
19891;SDS011;10108;50.142;8.724;2023-02-23T16:12:07;19.70;;;12.32;;
19891;SDS011;10108;50.142;8.724;2023-02-23T16:14:53;20.05;;;11.70;;
19891;SDS011;10108;50.142;8.724;2023-02-23T16:17:25;20.40;;;12.10;;
19891;SDS011;10108;50.142;8.724;2023-02-23T16:19:55;19.23;;;11.18;;
19891;SDS011;10108;50.142;8.724;2023-02-23T16:22:32;20.85;;;12.02;;
19891;SDS011;10108;50.142;8.724;2023-02-23T16:25:00;22.10;;;11.52;;
19891;SDS011;10108;50.142;8.724;2023-02-23T16:27:29;19.77;;;11.88;;
19891;SDS011;10108;50.142;8.724;2023-02-23T16:29:57;25.20;;;13.82;;
19891;SDS011;10108;50.142;8.724;2023-02-23T16:32:31;24.73;;;15.07;;
19891;SDS011;10108;50.142;8.724;2023-02-23T16:35:01;27.60;;;15.10;;
19891;SDS011;10108;50.142;8.724;2023-02-23T16:37:47;23.95;;;13.27;;
19891;SDS011;10108;50.142;8.724;2023-02-23T16:40:22;23.92;;;13.75;;
19891;SDS011;10108;50.142;8.724;2023-02-23T16:42:49;24.17;;;13.15;;